createdAt,value
2022-09-12T00:00:44.627Z,101063.81
2022-09-12T00:03:11.053Z,101056.03
2022-09-12T00:05:42.457Z,101063.59
2022-09-12T00:08:08.985Z,101057.38
2022-09-12T00:10:43.689Z,101053.22
2022-09-12T00:13:10.721Z,101050.75
2022-09-12T00:15:44.552Z,101061.97
2022-09-12T00:21:58.741Z,101053.72
2022-09-12T00:28:13.023Z,101046.47
2022-09-12T00:30:43.475Z,101040.06
2022-09-12T00:33:10.905Z,101047.66
2022-09-12T00:35:48.799Z,101046.31
2022-09-12T00:38:16.549Z,101042.97
2022-09-12T00:40:43.527Z,101035.56
2022-09-12T00:43:13.777Z,101039.34
2022-09-12T00:45:42.490Z,101033.00
2022-09-12T00:48:19.335Z,101025.72
2022-09-12T00:50:45.787Z,101023.91
2022-09-12T00:57:03.156Z,101007.00
2022-09-12T00:59:32.760Z,101010.94
2022-09-12T01:01:59.241Z,101006.66
2022-09-12T01:04:26.411Z,101007.97
2022-09-12T01:06:53.491Z,100996.94
2022-09-12T01:09:22.157Z,101006.06
2022-09-12T01:11:49.420Z,101002.09
2022-09-12T01:14:17.143Z,101002.41
2022-09-12T01:16:45.122Z,101006.75
2022-09-12T01:19:31.761Z,101006.84
2022-09-12T01:22:22.954Z,101001.16
2022-09-12T01:25:12.553Z,100994.50
2022-09-12T01:27:53.443Z,101001.66
2022-09-12T01:30:32.224Z,100999.25
2022-09-12T01:33:20.506Z,100997.03
2022-09-12T01:36:02.154Z,101003.66
2022-09-12T01:38:39.646Z,101001.47
2022-09-12T01:41:30.542Z,101006.53
2022-09-12T01:44:38.539Z,101000.69
2022-09-12T01:47:18.540Z,101001.81
2022-09-12T01:49:50.213Z,100996.94
2022-09-12T01:52:26.668Z,101005.09
2022-09-12T01:55:09.622Z,100998.69
2022-09-12T01:57:45.739Z,100991.03
2022-09-12T02:00:12.944Z,100996.66
2022-09-12T02:02:42.170Z,100996.19
2022-09-12T02:05:12.647Z,100989.63
2022-09-12T02:07:43.959Z,100987.81
2022-09-12T02:10:17.047Z,100990.50
2022-09-12T02:12:50.569Z,100984.94
2022-09-12T02:15:19.319Z,100988.00
2022-09-12T02:21:27.518Z,100977.53
2022-09-12T02:23:57.493Z,100980.38
2022-09-12T02:26:29.989Z,100983.56
2022-09-12T02:28:57.575Z,100978.00
2022-09-12T02:31:47.007Z,100980.84
2022-09-12T02:34:16.449Z,100986.47
2022-09-12T02:37:16.244Z,100985.13
2022-09-12T02:39:45.380Z,100978.13
2022-09-12T02:42:12.627Z,100975.63
2022-09-12T02:44:39.407Z,100977.91
2022-09-12T02:47:10.075Z,100977.22
2022-09-12T02:49:36.817Z,100967.63
2022-09-12T02:52:03.491Z,100973.50
2022-09-12T02:54:30.504Z,100973.41
2022-09-12T02:56:56.949Z,100972.50
2022-09-12T02:59:24.574Z,100963.69
2022-09-12T03:01:54.043Z,100963.94
2022-09-12T03:04:38.634Z,100959.97
2022-09-12T03:07:14.075Z,100964.59
2022-09-12T03:10:02.410Z,100958.75
2022-09-12T03:12:44.134Z,100956.94
2022-09-12T03:19:19.816Z,100953.81
2022-09-12T03:21:54.919Z,100949.56
2022-09-12T03:24:30.966Z,100950.91
2022-09-12T03:27:09.576Z,100952.47
2022-09-12T03:29:37.612Z,100946.13
2022-09-12T03:32:04.378Z,100947.75
2022-09-12T03:34:30.803Z,100943.91
2022-09-12T03:36:57.276Z,100946.28
2022-09-12T03:39:24.650Z,100946.91
2022-09-12T03:41:51.560Z,100945.81
2022-09-12T03:44:18.396Z,100949.09
2022-09-12T03:46:45.185Z,100949.22
2022-09-12T03:49:12.040Z,100950.44
2022-09-12T03:51:39.354Z,100951.13
2022-09-12T03:57:46.574Z,100944.34
2022-09-12T04:00:17.637Z,100947.63
2022-09-12T04:02:46.058Z,100946.16
2022-09-12T04:05:12.450Z,100948.88
2022-09-12T04:07:38.881Z,100945.50
2022-09-12T04:10:05.786Z,100945.94
2022-09-12T04:12:32.181Z,100944.94
2022-09-12T04:15:22.526Z,100941.66
2022-09-12T04:17:48.949Z,100952.03
2022-09-12T04:20:15.626Z,100946.16
2022-09-12T04:22:42.083Z,100951.47
2022-09-12T04:25:09.499Z,100949.78
2022-09-12T04:27:35.942Z,100942.69
2022-09-12T04:30:16.850Z,100947.63
2022-09-12T04:32:43.276Z,100934.25
2022-09-12T04:35:11.211Z,100940.41
2022-09-12T04:37:37.603Z,100943.47
2022-09-12T04:43:58.158Z,100947.41
2022-09-12T04:46:25.622Z,100946.84
2022-09-12T04:48:56.676Z,100936.59
2022-09-12T04:51:29.602Z,100936.81
2022-09-12T04:57:36.686Z,100948.44
2022-09-12T05:00:07.333Z,100939.41
2022-09-12T05:02:34.557Z,100933.31
2022-09-12T05:05:01.008Z,100931.50
2022-09-12T05:07:27.405Z,100936.59
2022-09-12T05:09:55.520Z,100929.94
2022-09-12T05:12:21.992Z,100933.31
2022-09-12T05:14:48.445Z,100929.94
2022-09-12T05:17:14.852Z,100932.19
2022-09-12T05:19:41.531Z,100923.06
2022-09-12T05:22:11.071Z,100930.63
2022-09-12T05:24:39.394Z,100929.22
2022-09-12T05:31:19.067Z,100927.34
2022-09-12T05:33:47.760Z,100928.44
2022-09-12T05:36:17.688Z,100928.09
2022-09-12T05:38:45.020Z,100926.31
2022-09-12T05:41:25.030Z,100915.69
2022-09-12T05:43:53.611Z,100916.63
2022-09-12T05:46:22.062Z,100911.44
2022-09-12T05:48:55.055Z,100920.41
2022-09-12T05:51:25.373Z,100922.78
2022-09-12T05:54:00.776Z,100915.22
2022-09-12T05:56:29.015Z,100926.84
2022-09-12T05:58:59.064Z,100923.66
2022-09-12T06:01:27.309Z,100924.06
2022-09-12T06:07:41.208Z,100926.97
2022-09-12T06:10:08.307Z,100921.19
2022-09-12T06:12:34.710Z,100932.06
2022-09-12T06:15:01.147Z,100926.78
2022-09-12T06:17:27.610Z,100926.66
2022-09-12T06:19:54.105Z,100921.44
2022-09-12T06:22:21.013Z,100923.66
2022-09-12T06:24:47.415Z,100922.19
2022-09-12T06:27:13.834Z,100928.53
2022-09-12T06:29:40.247Z,100924.25
2022-09-12T06:32:07.165Z,100917.38
2022-09-12T06:34:33.824Z,100921.31
2022-09-12T06:37:00.295Z,100916.72
2022-09-12T06:39:26.694Z,100918.94
2022-09-12T06:41:53.131Z,100901.84
2022-09-12T06:44:21.891Z,100914.06
2022-09-12T06:46:48.790Z,100910.78
2022-09-12T06:49:15.430Z,100911.38
2022-09-12T06:51:42.579Z,100909.34
2022-09-12T06:54:10.641Z,100903.31
2022-09-12T06:56:37.664Z,100908.63
2022-09-12T06:59:04.075Z,100905.81
2022-09-12T07:01:32.213Z,100910.91
2022-09-12T07:04:03.806Z,100911.56
2022-09-12T07:06:35.394Z,100916.53
2022-09-12T07:09:05.845Z,100916.63
2022-09-12T07:11:34.834Z,100908.28
2022-09-12T07:14:03.022Z,100913.72
2022-09-12T07:16:30.349Z,100911.78
2022-09-12T07:18:58.952Z,100908.84
2022-09-12T07:21:25.813Z,100904.19
2022-09-12T07:23:52.779Z,100902.84
2022-09-12T07:26:19.231Z,100906.81
2022-09-12T07:28:45.817Z,100909.50
2022-09-12T07:31:15.319Z,100902.28
2022-09-12T07:33:42.602Z,100901.72
2022-09-12T07:36:14.656Z,100898.06
2022-09-12T07:38:41.661Z,100900.41
2022-09-12T07:41:11.874Z,100899.47
2022-09-12T07:43:38.289Z,100899.75
2022-09-12T07:46:04.971Z,100887.34
2022-09-12T07:48:31.409Z,100885.31
2022-09-12T07:50:59.781Z,100888.66
2022-09-12T07:53:27.306Z,100881.41
2022-09-12T07:55:55.423Z,100873.72
2022-09-12T07:58:23.205Z,100877.50
2022-09-12T08:00:50.389Z,100880.84
2022-09-12T08:03:17.031Z,100883.94
2022-09-12T08:05:43.593Z,100873.94
2022-09-12T08:08:10.194Z,100873.38
2022-09-12T08:10:36.867Z,100872.63
2022-09-12T08:13:03.738Z,100873.19
2022-09-12T08:15:31.153Z,100879.34
2022-09-12T08:17:57.621Z,100881.50
2022-09-12T08:20:28.117Z,100878.38
2022-09-12T08:22:54.859Z,100876.59
2022-09-12T08:25:21.598Z,100882.06
2022-09-12T08:27:48.331Z,100877.41
2022-09-12T08:30:14.863Z,100885.75
2022-09-12T08:32:41.323Z,100876.06
2022-09-12T08:35:08.063Z,100871.38
2022-09-12T08:37:34.492Z,100871.00
2022-09-12T08:40:01.006Z,100868.75
2022-09-12T08:42:50.711Z,100873.31
2022-09-12T08:45:28.268Z,100866.56
2022-09-12T08:47:56.196Z,100859.28
2022-09-12T08:50:22.763Z,100865.16
2022-09-12T08:52:53.148Z,100857.63
2022-09-12T08:55:33.737Z,100856.88
2022-09-12T08:58:20.105Z,100855.22
2022-09-12T09:01:08.761Z,100860.13
2022-09-12T09:04:02.689Z,100852.47
2022-09-12T09:06:35.055Z,100856.84
2022-09-12T09:09:07.648Z,100862.28
2022-09-12T09:11:49.236Z,100859.03
2022-09-12T09:14:43.348Z,100844.94
2022-09-12T09:17:14.526Z,100843.25
2022-09-12T09:19:50.786Z,100847.16
2022-09-12T09:22:28.882Z,100848.38
2022-09-12T09:25:00.076Z,100837.53
2022-09-12T09:27:41.020Z,100837.94
2022-09-12T09:30:16.908Z,100834.72
2022-09-12T09:32:45.717Z,100835.16
2022-09-12T09:35:19.457Z,100838.47
2022-09-12T09:37:59.164Z,100841.75
2022-09-12T09:40:35.882Z,100831.47
2022-09-12T09:43:28.888Z,100826.47
2022-09-12T09:45:57.071Z,100826.88
2022-09-12T09:48:44.646Z,100822.28
2022-09-12T09:51:11.875Z,100827.91
2022-09-12T09:53:47.706Z,100821.09
2022-09-12T09:56:33.826Z,100813.50
2022-09-12T09:59:12.568Z,100811.28
2022-09-12T10:01:49.766Z,100812.50
2022-09-12T10:04:29.399Z,100809.09
2022-09-12T10:07:01.228Z,100808.72
2022-09-12T10:09:29.612Z,100798.41
2022-09-12T10:11:57.136Z,100794.41
2022-09-12T10:14:33.524Z,100790.91
2022-09-12T10:16:59.966Z,100792.00
2022-09-12T10:19:42.914Z,100782.91
2022-09-12T10:22:18.452Z,100784.38
2022-09-12T10:24:50.550Z,100784.66
2022-09-12T10:27:21.011Z,100780.34
2022-09-12T10:29:55.909Z,100779.72
2022-09-12T10:32:31.765Z,100776.94
2022-09-12T10:35:04.014Z,100780.78
2022-09-12T10:37:33.495Z,100771.66
2022-09-12T10:40:00.923Z,100766.75
2022-09-12T10:42:47.686Z,100761.78
2022-09-12T10:45:24.740Z,100756.53
2022-09-12T10:47:55.346Z,100761.09
2022-09-12T10:50:23.909Z,100761.25
2022-09-12T10:52:50.793Z,100758.84
2022-09-12T10:55:17.613Z,100758.78
2022-09-12T10:58:05.014Z,100749.94
2022-09-12T11:00:37.560Z,100754.06
2022-09-12T11:03:16.140Z,100749.13
2022-09-12T11:05:55.166Z,100743.72
2022-09-12T11:08:41.895Z,100738.81
2022-09-12T11:11:28.366Z,100742.47
2022-09-12T11:14:23.031Z,100734.88
2022-09-12T11:17:01.294Z,100732.16
2022-09-12T11:19:34.433Z,100725.69
2022-09-12T11:22:31.912Z,100719.63
2022-09-12T11:25:11.921Z,100718.78
2022-09-12T11:28:00.196Z,100717.41
2022-09-12T11:34:17.885Z,100696.00
2022-09-12T11:37:10.447Z,100697.25
2022-09-12T11:39:44.570Z,100698.72
2022-09-12T11:42:22.573Z,100703.88
2022-09-12T11:45:13.722Z,100697.22
2022-09-12T11:47:40.858Z,100696.63
2022-09-12T11:50:27.909Z,100694.34
2022-09-12T11:52:58.161Z,100698.44
2022-09-12T11:55:28.242Z,100697.06
2022-09-12T11:57:56.593Z,100681.09
2022-09-12T12:00:36.690Z,100684.13
2022-09-12T12:03:21.169Z,100671.06
2022-09-12T12:06:06.909Z,100676.75
2022-09-12T12:08:39.386Z,100676.53
2022-09-12T12:11:06.583Z,100679.19
2022-09-12T12:13:47.800Z,100666.09
2022-09-12T12:16:23.310Z,100661.69
2022-09-12T12:18:58.428Z,100658.78
2022-09-12T12:21:31.680Z,100647.59
2022-09-12T12:24:07.125Z,100650.56
2022-09-12T12:26:39.670Z,100658.88
2022-09-12T12:32:46.670Z,100641.22
2022-09-12T12:35:40.407Z,100651.47
2022-09-12T12:38:35.647Z,100643.78
2022-09-12T12:41:17.160Z,100638.31
2022-09-12T12:43:51.442Z,100639.50
2022-09-12T12:46:22.696Z,100640.34
2022-09-12T12:48:55.361Z,100623.81
2022-09-12T12:51:27.864Z,100623.41
2022-09-12T12:53:54.442Z,100610.28
2022-09-12T12:56:27.843Z,100610.47
2022-09-12T12:59:03.353Z,100609.81
2022-09-12T13:01:30.440Z,100606.25
2022-09-12T13:04:01.322Z,100600.22
2022-09-12T13:06:36.395Z,100600.75
2022-09-12T13:09:06.977Z,100595.88
2022-09-12T13:11:35.834Z,100591.69
2022-09-12T13:14:04.803Z,100593.31
2022-09-12T13:16:39.851Z,100600.81
2022-09-12T13:19:18.376Z,100587.34
2022-09-12T13:22:00.569Z,100590.28
2022-09-12T13:24:27.185Z,100578.59
2022-09-12T13:26:54.618Z,100573.47
2022-09-12T13:29:25.521Z,100564.00
2022-09-12T13:31:59.652Z,100581.47
2022-09-12T13:34:31.857Z,100580.84
2022-09-12T13:37:26.222Z,100577.63
2022-09-12T13:40:11.609Z,100565.41
2022-09-12T13:42:42.761Z,100561.59
2022-09-12T13:45:13.606Z,100557.25
2022-09-12T13:47:43.027Z,100547.28
2022-09-12T13:50:23.667Z,100565.81
2022-09-12T13:52:53.722Z,100547.13
2022-09-12T13:55:25.657Z,100551.44
2022-09-12T13:58:03.841Z,100549.06
2022-09-12T14:00:32.135Z,100550.59
2022-09-12T14:03:18.186Z,100552.50
2022-09-12T14:05:46.770Z,100545.50
2022-09-12T14:08:14.938Z,100551.31
2022-09-12T14:10:45.182Z,100556.81
2022-09-12T14:13:16.924Z,100544.34
2022-09-12T14:15:49.076Z,100540.75
2022-09-12T14:18:27.340Z,100543.50
2022-09-12T14:21:00.808Z,100541.19
2022-09-12T14:23:32.147Z,100535.41
2022-09-12T14:26:02.468Z,100534.13
2022-09-12T14:28:30.230Z,100544.91
2022-09-12T14:31:12.815Z,100545.47
2022-09-12T14:33:56.947Z,100543.75
2022-09-12T14:36:34.328Z,100529.44
2022-09-12T14:39:06.148Z,100519.38
2022-09-12T14:41:39.102Z,100508.13
2022-09-12T14:44:08.535Z,100506.16
2022-09-12T14:46:36.464Z,100516.47
2022-09-12T14:49:10.335Z,100504.53
2022-09-12T14:51:39.038Z,100499.03
2022-09-12T14:54:05.738Z,100502.78
2022-09-12T14:56:44.024Z,100502.97
2022-09-12T14:59:40.713Z,100501.22
2022-09-12T15:02:13.320Z,100495.88
2022-09-12T15:04:50.445Z,100502.94
2022-09-12T15:07:34.590Z,100490.53
2022-09-12T15:10:05.314Z,100499.34
2022-09-12T15:12:32.061Z,100485.25
2022-09-12T15:15:13.423Z,100487.78
2022-09-12T15:17:39.814Z,100496.50
2022-09-12T15:20:06.851Z,100486.72
2022-09-12T15:22:33.817Z,100484.16
2022-09-12T15:25:00.495Z,100484.13
2022-09-12T15:27:26.981Z,100493.88
2022-09-12T15:29:53.953Z,100482.50
2022-09-12T15:32:29.369Z,100480.81
2022-09-12T15:34:56.040Z,100472.56
2022-09-12T15:37:24.143Z,100455.97
2022-09-12T15:43:37.912Z,100454.34
2022-09-12T15:46:06.704Z,100449.53
2022-09-12T15:48:33.458Z,100449.34
2022-09-12T15:54:41.036Z,100438.19
2022-09-12T15:57:07.930Z,100439.72
2022-09-12T15:59:34.355Z,100440.72
2022-09-12T16:02:01.202Z,100442.75
2022-09-12T16:04:29.298Z,100446.50
2022-09-12T16:06:56.663Z,100444.31
2022-09-12T16:09:24.012Z,100435.63
2022-09-12T16:11:50.784Z,100447.84
2022-09-12T16:14:18.541Z,100452.03
2022-09-12T16:16:52.122Z,100445.25
2022-09-12T16:19:18.586Z,100437.56
2022-09-12T16:21:45.000Z,100439.34
2022-09-12T16:24:11.757Z,100442.47
2022-09-12T16:26:38.360Z,100442.72
2022-09-12T16:32:52.263Z,100431.81
2022-09-12T16:38:59.373Z,100432.91
2022-09-12T16:41:26.288Z,100423.09
2022-09-12T16:43:53.233Z,100429.31
2022-09-12T16:46:22.054Z,100414.44
2022-09-12T16:48:52.436Z,100411.44
2022-09-12T16:51:22.130Z,100409.06
2022-09-12T16:53:49.118Z,100410.78
2022-09-12T16:56:15.560Z,100402.81
2022-09-12T16:58:42.865Z,100407.22
2022-09-12T17:01:14.897Z,100411.22
2022-09-12T17:03:41.848Z,100410.72
2022-09-12T17:06:18.025Z,100398.06
2022-09-12T17:08:46.841Z,100402.00
2022-09-12T17:11:18.694Z,100400.16
2022-09-12T17:17:31.928Z,100405.06
2022-09-12T17:19:58.459Z,100401.91
2022-09-12T17:22:24.898Z,100401.56
2022-09-12T17:24:51.413Z,100402.44
2022-09-12T17:27:17.862Z,100401.06
2022-09-12T17:29:44.398Z,100398.22
2022-09-12T17:32:14.405Z,100394.31
2022-09-12T17:34:43.345Z,100399.19
2022-09-12T17:37:09.919Z,100395.19
2022-09-12T17:43:24.132Z,100399.88
2022-09-12T17:45:56.478Z,100400.50
2022-09-12T17:48:23.250Z,100395.25
2022-09-12T17:50:50.629Z,100400.13
2022-09-12T17:53:17.892Z,100402.53
2022-09-12T17:56:40.615Z,100396.03
2022-09-12T17:59:08.622Z,100403.19
2022-09-12T18:01:53.730Z,100402.09
2022-09-12T18:04:20.435Z,100396.78
2022-09-12T18:06:50.326Z,100408.00
2022-09-12T18:13:03.899Z,100407.66
2022-09-12T18:15:31.093Z,100411.66
2022-09-12T18:17:57.499Z,100413.94
2022-09-12T18:20:23.906Z,100410.19
2022-09-12T18:22:50.357Z,100401.31
2022-09-12T18:25:16.856Z,100395.09
2022-09-12T18:27:43.384Z,100399.00
2022-09-12T18:30:20.976Z,100393.59
2022-09-12T18:32:47.813Z,100395.13
2022-09-12T18:35:14.321Z,100390.63
2022-09-12T18:37:41.442Z,100388.06
2022-09-12T18:40:08.228Z,100381.00
2022-09-12T18:42:34.782Z,100382.09
2022-09-12T18:45:01.288Z,100384.50
2022-09-12T18:47:27.757Z,100381.94
2022-09-12T18:49:54.493Z,100404.69
2022-09-12T18:56:08.580Z,100409.00
2022-09-12T18:58:40.653Z,100404.44
2022-09-12T19:01:10.678Z,100400.13
2022-09-12T19:03:37.245Z,100396.34
2022-09-12T19:06:27.738Z,100404.16
2022-09-12T19:08:56.183Z,100401.63
2022-09-12T19:11:23.867Z,100403.38
2022-09-12T19:17:36.965Z,100396.47
2022-09-12T19:20:04.528Z,100395.69
2022-09-12T19:22:30.931Z,100384.88
2022-09-12T19:24:57.366Z,100379.19
2022-09-12T19:27:23.822Z,100376.44
2022-09-12T19:33:37.761Z,100379.88
2022-09-12T19:36:13.854Z,100379.53
2022-09-12T19:38:53.139Z,100378.25
2022-09-12T19:41:20.282Z,100369.03
2022-09-12T19:43:46.666Z,100371.19
2022-09-12T19:46:16.218Z,100373.28
2022-09-12T19:48:42.651Z,100369.72
2022-09-12T19:51:09.069Z,100362.69
2022-09-12T19:53:35.514Z,100368.31
2022-09-12T19:56:04.363Z,100369.19
2022-09-12T20:02:18.455Z,100365.66
2022-09-12T20:04:47.334Z,100368.88
2022-09-12T20:07:13.705Z,100370.13
2022-09-12T20:09:40.099Z,100368.25
2022-09-12T20:15:47.313Z,100373.94
2022-09-12T20:18:14.025Z,100369.25
2022-09-12T20:20:40.422Z,100364.69
2022-09-12T20:23:06.798Z,100368.38
2022-09-12T20:25:33.223Z,100360.00
2022-09-12T20:28:00.340Z,100360.97
2022-09-12T20:34:16.460Z,100353.72
2022-09-12T20:36:42.883Z,100360.84
2022-09-12T20:42:57.012Z,100360.72
2022-09-12T20:45:23.423Z,100348.78
2022-09-12T20:47:49.828Z,100347.34
2022-09-12T20:50:16.473Z,100347.22
2022-09-12T20:52:42.859Z,100330.09
2022-09-12T20:55:12.706Z,100334.31
2022-09-12T20:57:39.138Z,100326.91
2022-09-12T21:03:53.173Z,100314.13
2022-09-12T21:06:20.393Z,100309.81
2022-09-12T21:08:48.162Z,100302.91
2022-09-12T21:11:15.118Z,100299.50
2022-09-12T21:13:41.741Z,100292.41
2022-09-12T21:16:16.818Z,100295.16
2022-09-12T21:18:43.377Z,100278.66
2022-09-12T21:21:11.222Z,100287.44
2022-09-12T21:23:37.838Z,100284.50
2022-09-12T21:26:04.610Z,100274.81
2022-09-12T21:28:31.395Z,100262.34
2022-09-12T21:30:58.093Z,100276.59
2022-09-12T21:33:24.875Z,100274.00
2022-09-12T21:35:51.268Z,100262.09
2022-09-12T21:38:18.937Z,100264.91
2022-09-12T21:40:46.657Z,100267.53
2022-09-12T21:43:13.642Z,100268.41
2022-09-12T21:45:40.382Z,100274.47
2022-09-12T21:48:06.948Z,100268.09
2022-09-12T21:50:33.349Z,100269.06
2022-09-12T21:52:59.818Z,100280.78
2022-09-12T21:55:27.215Z,100279.22
2022-09-12T21:57:54.710Z,100280.72
2022-09-12T22:00:21.979Z,100288.72
2022-09-12T22:02:48.830Z,100298.88
2022-09-12T22:05:16.109Z,100295.66
2022-09-12T22:07:42.540Z,100299.09
2022-09-12T22:10:09.378Z,100287.06
2022-09-12T22:12:35.827Z,100284.63
2022-09-12T22:15:17.535Z,100287.06
2022-09-12T22:17:48.637Z,100283.22
2022-09-12T22:20:15.078Z,100281.59
2022-09-12T22:23:00.003Z,100279.38
2022-09-12T22:25:26.560Z,100279.00
2022-09-12T22:27:54.005Z,100295.47
2022-09-12T22:30:21.742Z,100284.47
2022-09-12T22:32:49.894Z,100295.22
2022-09-12T22:35:17.070Z,100292.63
2022-09-12T22:37:43.544Z,100292.91
2022-09-12T22:40:11.675Z,100300.81
2022-09-12T22:42:38.301Z,100293.28
2022-09-12T22:45:05.842Z,100275.91
2022-09-12T22:47:32.265Z,100288.09
2022-09-12T22:49:58.823Z,100278.16
2022-09-12T22:52:25.199Z,100276.16
2022-09-12T22:54:52.027Z,100290.66
2022-09-12T22:57:18.441Z,100285.59
2022-09-12T22:59:44.836Z,100283.63
2022-09-12T23:02:11.213Z,100281.78
2022-09-12T23:04:37.737Z,100283.56
2022-09-12T23:07:04.175Z,100286.34
2022-09-12T23:09:35.150Z,100287.94
2022-09-12T23:12:02.056Z,100280.28
2022-09-12T23:14:28.440Z,100283.94
2022-09-12T23:16:54.859Z,100282.84
2022-09-12T23:19:21.251Z,100288.41
2022-09-12T23:21:47.666Z,100284.34
2022-09-12T23:24:14.522Z,100287.88
2022-09-12T23:30:28.547Z,100291.91
2022-09-12T23:32:56.231Z,100293.09
2022-09-12T23:35:22.714Z,100294.75
2022-09-12T23:37:49.078Z,100287.31
2022-09-12T23:40:15.583Z,100288.63
2022-09-12T23:42:42.072Z,100291.41
2022-09-12T23:45:08.916Z,100282.53
2022-09-12T23:47:35.304Z,100281.00
2022-09-12T23:50:01.737Z,100274.78
2022-09-12T23:52:28.302Z,100274.06
2022-09-12T23:54:54.715Z,100264.84
2022-09-12T23:57:21.115Z,100269.31
2022-09-12T23:59:47.522Z,100268.56
